Time;durP1;ratioP1;P1;durP2;ratioP2;P2;SDS_P1;SDS_P2;PMS_P1;PMS_P2;Temp;Humidity;BMP_temperature;BMP_pressure;BME280_temperature;BME280_humidity;BME280_pressure;Samples;Min_cycle;Max_cycle;Signal;HPM_P1;HPM_P2
2023/08/20 00:00:28;;;;;;;3.27;3.07;;;24.30;55.70;;;;;;5015786;28;21014;-70
2023/08/20 00:03:02;;;;;;;3.23;3.03;;;24.30;55.70;;;;;;5035389;28;21047;-69
2023/08/20 00:05:29;;;;;;;3.33;3.13;;;24.40;55.70;;;;;;5034192;28;20993;-69
2023/08/20 00:07:54;;;;;;;3.07;2.97;;;24.30;55.60;;;;;;5033065;28;20609;-71
2023/08/20 00:10:20;;;;;;;3.90;3.17;;;24.30;55.60;;;;;;5014806;28;20969;-69
2023/08/20 00:12:45;;;;;;;3.40;3.20;;;24.30;55.70;;;;;;5034821;28;20222;-69
2023/08/20 00:15:11;;;;;;;3.40;3.20;;;24.30;55.70;;;;;;5035031;28;20228;-69
2023/08/20 00:17:38;;;;;;;3.40;3.30;;;24.30;55.70;;;;;;5031334;28;20227;-71
2023/08/20 00:20:12;;;;;;;3.20;3.00;;;24.30;55.70;;;;;;5033996;28;20580;-70
2023/08/20 00:22:39;;;;;;;2.70;2.60;;;24.30;55.70;;;;;;5019168;28;20463;-69
2023/08/20 00:25:05;;;;;;;3.23;3.03;;;24.30;55.70;;;;;;5034614;28;21110;-71
2023/08/20 00:27:32;;;;;;;2.80;2.70;;;24.30;55.70;;;;;;5025994;28;20510;-70
2023/08/20 00:29:57;;;;;;;3.10;2.90;;;24.30;55.80;;;;;;5027723;28;20478;-70
2023/08/20 00:32:23;;;;;;;3.40;3.20;;;24.30;55.70;;;;;;5025905;28;20477;-70
2023/08/20 00:34:48;;;;;;;3.27;3.07;;;24.30;55.70;;;;;;5025664;28;20282;-71
2023/08/20 00:37:14;;;;;;;4.20;3.97;;;24.30;55.70;;;;;;5030351;28;22180;-70
2023/08/20 00:39:40;;;;;;;3.33;3.13;;;24.30;55.70;;;;;;5035940;28;20222;-70
2023/08/20 00:42:07;;;;;;;3.03;2.93;;;24.30;55.70;;;;;;5036095;28;20221;-70
2023/08/20 00:44:33;;;;;;;3.97;3.77;;;24.30;55.70;;;;;;5016522;28;20221;-70
2023/08/20 00:47:00;;;;;;;3.40;3.20;;;24.30;55.70;;;;;;5037261;28;20470;-70
2023/08/20 00:49:26;;;;;;;3.43;3.23;;;24.30;55.70;;;;;;5037679;28;20475;-69
2023/08/20 00:51:53;;;;;;;3.23;3.03;;;24.30;55.70;;;;;;5035752;28;20506;-72
2023/08/20 00:54:20;;;;;;;3.10;3.00;;;24.30;55.70;;;;;;5038352;28;20222;-71
2023/08/20 00:56:47;;;;;;;3.93;3.73;;;24.30;55.70;;;;;;5035355;28;20485;-69
2023/08/20 00:59:13;;;;;;;2.80;2.70;;;24.30;55.70;;;;;;5018600;28;20474;-70
2023/08/20 01:01:38;;;;;;;3.20;3.00;;;24.30;55.80;;;;;;5021245;28;20498;-72
2023/08/20 01:04:04;;;;;;;3.30;3.10;;;24.30;55.80;;;;;;5016430;28;20546;-69
2023/08/20 01:07:01;;;;;;;3.40;3.20;;;24.30;55.70;;;;;;5036268;28;20241;-69
2023/08/20 01:09:43;;;;;;;2.73;2.63;;;24.30;55.70;;;;;;5030953;28;20287;-70
2023/08/20 01:12:10;;;;;;;3.50;3.30;;;24.30;55.80;;;;;;5033999;28;20466;-69
2023/08/20 01:14:35;;;;;;;3.00;2.90;;;24.30;55.80;;;;;;5034476;28;20545;-70
2023/08/20 01:17:01;;;;;;;3.30;3.10;;;24.30;55.80;;;;;;5030364;28;20489;-69
2023/08/20 01:19:27;;;;;;;3.40;3.30;;;24.30;55.80;;;;;;5033999;28;20229;-69
2023/08/20 01:22:23;;;;;;;3.63;3.43;;;24.30;55.80;;;;;;5032855;28;20305;-71
2023/08/20 01:25:10;;;;;;;3.10;2.93;;;24.30;55.80;;;;;;5035268;28;20463;-69
2023/08/20 01:27:51;;;;;;;3.37;3.17;;;24.30;55.80;;;;;;5033794;28;20458;-69
2023/08/20 01:30:21;;;;;;;3.43;3.23;;;24.20;55.70;;;;;;5009689;28;22166;-70
2023/08/20 01:32:50;;;;;;;3.20;3.00;;;24.30;55.80;;;;;;5031738;28;20462;-71
2023/08/20 01:35:17;;;;;;;3.40;3.20;;;24.30;55.80;;;;;;5013815;28;20553;-70
2023/08/20 01:37:42;;;;;;;2.83;2.73;;;24.30;55.80;;;;;;5011204;28;20474;-69
2023/08/20 01:40:10;;;;;;;3.17;2.97;;;24.30;55.80;;;;;;5010240;28;20467;-69
2023/08/20 01:42:39;;;;;;;3.40;3.20;;;24.20;55.70;;;;;;5032406;28;20288;-71
2023/08/20 01:45:05;;;;;;;3.23;3.03;;;24.20;55.70;;;;;;5013959;28;20545;-70
2023/08/20 01:47:31;;;;;;;3.60;3.40;;;24.20;55.70;;;;;;5008606;28;21587;-69
2023/08/20 01:49:57;;;;;;;3.70;3.50;;;24.20;55.70;;;;;;5032692;28;21028;-69
2023/08/20 01:52:23;;;;;;;3.20;3.00;;;24.20;55.70;;;;;;5032909;28;20462;-69
2023/08/20 01:54:49;;;;;;;3.17;3.00;;;24.20;55.70;;;;;;5013201;28;20233;-71
2023/08/20 01:57:14;;;;;;;3.20;3.00;;;24.20;55.70;;;;;;5034307;28;20849;-72
2023/08/20 01:59:40;;;;;;;3.83;3.63;;;24.20;55.70;;;;;;5032632;28;20229;-72
2023/08/20 02:02:06;;;;;;;2.93;2.77;;;24.20;55.70;;;;;;5032584;28;20237;-72
2023/08/20 02:04:32;;;;;;;3.27;3.17;;;24.20;55.70;;;;;;5033817;28;20311;-71
2023/08/20 02:06:57;;;;;;;3.47;3.27;;;24.20;55.70;;;;;;5029733;28;20230;-72
2023/08/20 02:09:24;;;;;;;3.20;3.00;;;24.20;55.70;;;;;;5034925;28;20486;-71
2023/08/20 02:11:50;;;;;;;3.30;3.10;;;24.20;55.70;;;;;;5018309;28;20688;-72
2023/08/20 02:14:15;;;;;;;2.83;2.73;;;24.20;55.70;;;;;;5015590;28;20459;-72
2023/08/20 02:16:41;;;;;;;3.00;2.90;;;24.20;55.70;;;;;;5034568;28;20528;-72
2023/08/20 02:19:07;;;;;;;3.50;3.30;;;24.20;55.70;;;;;;5037430;28;20306;-71
2023/08/20 02:21:33;;;;;;;3.40;3.20;;;24.20;55.70;;;;;;5034241;28;20245;-72
2023/08/20 02:23:58;;;;;;;3.27;3.07;;;24.20;55.70;;;;;;5034632;28;20707;-71
2023/08/20 02:26:24;;;;;;;2.80;2.70;;;24.20;55.70;;;;;;5034584;28;20226;-71
2023/08/20 02:28:49;;;;;;;3.67;3.37;;;24.20;55.70;;;;;;5037973;28;20231;-72
2023/08/20 02:31:15;;;;;;;3.10;2.90;;;24.20;55.70;;;;;;5016187;28;20229;-72
2023/08/20 02:33:41;;;;;;;3.27;3.07;;;24.20;55.70;;;;;;5018221;28;20313;-72
2023/08/20 02:36:06;;;;;;;3.40;3.20;;;24.20;55.70;;;;;;5035036;28;20229;-72
2023/08/20 02:38:32;;;;;;;3.63;3.43;;;24.20;55.70;;;;;;5033889;28;20213;-72
2023/08/20 02:40:57;;;;;;;4.27;4.07;;;24.20;55.70;;;;;;5016652;28;20621;-72
2023/08/20 02:43:23;;;;;;;4.47;3.30;;;24.20;55.70;;;;;;5033544;28;21453;-71
2023/08/20 02:45:49;;;;;;;3.10;3.00;;;24.20;55.70;;;;;;5014675;28;20226;-72
2023/08/20 02:48:14;;;;;;;3.67;3.47;;;24.20;55.70;;;;;;5033058;28;20303;-71
2023/08/20 02:50:40;;;;;;;3.60;3.40;;;24.20;55.70;;;;;;5035603;28;20245;-71
2023/08/20 02:53:06;;;;;;;3.53;3.33;;;24.20;55.70;;;;;;5038243;28;20221;-72
2023/08/20 02:55:33;;;;;;;2.93;2.83;;;24.20;55.70;;;;;;5016398;28;20229;-72
2023/08/20 02:57:58;;;;;;;3.23;3.03;;;24.20;55.70;;;;;;5015876;28;20222;-72
2023/08/20 03:00:24;;;;;;;3.03;2.87;;;24.20;55.80;;;;;;5035158;28;20494;-71
2023/08/20 03:02:49;;;;;;;3.10;2.90;;;24.20;55.70;;;;;;5031025;28;20587;-71
2023/08/20 03:05:15;;;;;;;3.10;2.90;;;24.20;55.70;;;;;;5016481;28;20340;-71
2023/08/20 03:07:40;;;;;;;3.20;3.00;;;24.20;55.80;;;;;;5013007;28;20224;-72
2023/08/20 03:10:07;;;;;;;3.50;3.30;;;24.20;55.70;;;;;;5030113;28;20235;-72
2023/08/20 03:12:32;;;;;;;3.43;3.33;;;24.20;55.70;;;;;;5029686;28;20228;-72
2023/08/20 03:14:59;;;;;;;2.90;2.80;;;24.20;55.70;;;;;;5015462;28;20487;-71
2023/08/20 03:17:25;;;;;;;2.90;2.80;;;24.20;55.70;;;;;;5032681;28;20305;-72
2023/08/20 03:19:58;;;;;;;3.23;2.90;;;24.20;55.70;;;;;;5034223;28;20511;-71
2023/08/20 03:22:25;;;;;;;3.20;3.10;;;24.20;55.70;;;;;;5034303;28;20229;-72
2023/08/20 03:24:51;;;;;;;3.13;3.03;;;24.20;55.70;;;;;;5037136;28;20470;-72
2023/08/20 03:27:17;;;;;;;3.27;3.07;;;24.20;55.70;;;;;;5033865;28;20446;-71
2023/08/20 03:29:44;;;;;;;3.03;2.83;;;24.20;55.70;;;;;;5032488;28;21117;-72
2023/08/20 03:32:09;;;;;;;2.90;2.70;;;24.20;55.70;;;;;;5031392;28;20483;-72
2023/08/20 03:34:35;;;;;;;3.30;3.10;;;24.20;55.70;;;;;;5034544;28;21009;-72
2023/08/20 03:37:01;;;;;;;3.73;3.53;;;24.20;55.70;;;;;;5012195;28;20312;-71
2023/08/20 03:39:26;;;;;;;3.27;3.07;;;24.20;55.70;;;;;;5034169;28;20225;-72
2023/08/20 03:41:52;;;;;;;2.57;2.47;;;24.20;55.70;;;;;;5033917;28;20477;-73
2023/08/20 03:44:18;;;;;;;3.20;3.00;;;24.20;55.70;;;;;;5035122;28;20222;-73
2023/08/20 03:46:44;;;;;;;3.83;3.50;;;24.20;55.70;;;;;;5031275;28;20241;-72
2023/08/20 03:49:10;;;;;;;3.00;2.80;;;24.20;55.70;;;;;;5016261;28;20470;-72
2023/08/20 03:51:35;;;;;;;3.03;2.80;;;24.20;55.70;;;;;;5015074;28;20222;-72
2023/08/20 03:54:01;;;;;;;3.03;2.93;;;24.20;55.70;;;;;;5033238;28;20767;-73
2023/08/20 03:56:26;;;;;;;2.73;2.63;;;24.20;55.70;;;;;;5017801;28;20218;-72
2023/08/20 03:58:52;;;;;;;2.90;2.80;;;24.20;55.70;;;;;;5032240;28;20213;-73
2023/08/20 04:01:18;;;;;;;3.37;3.17;;;24.20;55.60;;;;;;5034373;28;20214;-72
2023/08/20 04:03:46;;;;;;;3.47;3.27;;;24.20;55.70;;;;;;5033096;28;20592;-69
2023/08/20 04:06:11;;;;;;;3.20;3.00;;;24.20;55.60;;;;;;5034647;28;20462;-70
2023/08/20 04:08:37;;;;;;;3.50;3.20;;;24.20;55.60;;;;;;5034162;28;20798;-70
2023/08/20 04:11:03;;;;;;;3.10;2.90;;;24.20;55.60;;;;;;5033555;28;20225;-73
2023/08/20 04:13:29;;;;;;;3.30;3.10;;;24.20;55.60;;;;;;5013005;28;20213;-70
2023/08/20 04:15:55;;;;;;;3.67;3.47;;;24.20;55.70;;;;;;5035391;28;20470;-71
2023/08/20 04:18:20;;;;;;;3.13;2.93;;;24.20;55.60;;;;;;5012273;28;20459;-71
2023/08/20 04:20:46;;;;;;;3.13;2.93;;;24.20;55.60;;;;;;5013002;28;20720;-71
2023/08/20 04:23:11;;;;;;;2.87;2.77;;;24.20;55.60;;;;;;5017365;28;20275;-71
2023/08/20 04:25:37;;;;;;;2.40;2.30;;;24.10;55.50;;;;;;5032099;28;20233;-71
2023/08/20 04:28:03;;;;;;;3.27;3.07;;;24.20;55.70;;;;;;5031387;28;20230;-72
2023/08/20 04:30:28;;;;;;;3.07;2.97;;;24.10;55.60;;;;;;5032978;28;20222;-72
2023/08/20 04:32:54;;;;;;;3.37;3.17;;;24.20;55.60;;;;;;5018875;28;20228;-71
2023/08/20 04:35:20;;;;;;;2.70;2.60;;;24.20;55.60;;;;;;5035708;28;20213;-72
2023/08/20 04:37:46;;;;;;;3.33;3.13;;;24.20;55.60;;;;;;5033318;28;20217;-72
2023/08/20 04:40:12;;;;;;;3.07;2.87;;;24.20;55.60;;;;;;5030832;28;20477;-72
2023/08/20 04:42:37;;;;;;;3.17;2.97;;;24.20;55.50;;;;;;5034511;28;20771;-73
2023/08/20 04:45:03;;;;;;;3.27;3.03;;;24.20;55.60;;;;;;5031665;28;20541;-72
2023/08/20 04:47:29;;;;;;;3.30;3.10;;;24.20;55.60;;;;;;5032709;28;20236;-72
2023/08/20 04:49:55;;;;;;;3.50;3.30;;;24.20;55.50;;;;;;5037169;28;21148;-72
2023/08/20 04:52:20;;;;;;;4.07;3.87;;;24.20;55.50;;;;;;5040834;28;20587;-73
2023/08/20 04:54:47;;;;;;;4.10;3.80;;;24.20;55.50;;;;;;5021480;28;20234;-73
2023/08/20 04:57:12;;;;;;;3.67;3.47;;;24.20;55.40;;;;;;5040834;28;20218;-72
2023/08/20 04:59:38;;;;;;;4.30;4.10;;;24.20;55.30;;;;;;5037661;28;20469;-72
2023/08/20 05:02:04;;;;;;;3.33;3.13;;;24.20;55.20;;;;;;5038933;28;20221;-71
2023/08/20 05:04:29;;;;;;;3.60;3.40;;;24.10;55.10;;;;;;5039914;28;20226;-72
2023/08/20 05:06:55;;;;;;;4.00;3.80;;;24.20;55.10;;;;;;5035644;28;20214;-72
2023/08/20 05:09:21;;;;;;;3.50;3.30;;;24.20;55.10;;;;;;5038034;28;20283;-73
2023/08/20 05:11:47;;;;;;;4.17;3.97;;;24.20;55.10;;;;;;5035505;28;20252;-72
2023/08/20 05:14:12;;;;;;;4.00;3.77;;;24.20;55.70;;;;;;5017141;28;20459;-71
2023/08/20 05:16:38;;;;;;;3.53;3.33;;;24.20;54.80;;;;;;5039717;28;20232;-73
2023/08/20 05:19:03;;;;;;;4.80;4.40;;;24.20;54.80;;;;;;5021611;28;20233;-73
2023/08/20 05:21:29;;;;;;;3.60;3.40;;;24.20;54.80;;;;;;5038552;28;20228;-72
2023/08/20 05:23:54;;;;;;;3.83;3.50;;;24.20;54.70;;;;;;5038506;28;20276;-70
2023/08/20 05:26:21;;;;;;;4.00;3.70;;;24.20;54.70;;;;;;5023085;28;20266;-68
2023/08/20 05:28:47;;;;;;;3.97;3.77;;;24.20;54.70;;;;;;5040512;28;20708;-71
2023/08/20 05:31:12;;;;;;;4.17;3.97;;;24.10;54.60;;;;;;5024524;28;20470;-69
2023/08/20 05:33:38;;;;;;;4.20;3.93;;;24.20;54.60;;;;;;5042607;28;20225;-69
2023/08/20 05:36:03;;;;;;;4.50;3.90;;;24.20;54.50;;;;;;5042174;28;20218;-69
2023/08/20 05:38:29;;;;;;;3.80;3.57;;;24.20;54.50;;;;;;5041826;28;21080;-70
2023/08/20 05:40:55;;;;;;;4.50;4.20;;;24.20;54.50;;;;;;5042266;28;20697;-71
2023/08/20 05:43:20;;;;;;;4.20;4.00;;;24.20;54.50;;;;;;5043299;28;20221;-72
2023/08/20 05:45:46;;;;;;;4.30;4.00;;;24.10;54.40;;;;;;5042754;28;20232;-74
2023/08/20 05:48:11;;;;;;;3.73;3.53;;;24.10;54.30;;;;;;5041777;28;20689;-73
2023/08/20 05:50:36;;;;;;;3.90;3.70;;;24.10;54.30;;;;;;5042182;28;20225;-73
2023/08/20 05:53:02;;;;;;;4.10;3.80;;;24.10;54.30;;;;;;5043285;28;20214;-72
2023/08/20 05:55:28;;;;;;;4.07;3.87;;;24.20;54.40;;;;;;5043089;28;20280;-74
2023/08/20 05:57:53;;;;;;;4.07;3.87;;;24.20;54.30;;;;;;5041224;28;20874;-74
2023/08/20 06:00:19;;;;;;;4.00;3.80;;;24.10;54.20;;;;;;5040613;28;20245;-72
2023/08/20 06:02:44;;;;;;;4.57;4.27;;;24.10;54.20;;;;;;5039424;28;20222;-75
2023/08/20 06:05:10;;;;;;;4.80;3.50;;;24.10;54.20;;;;;;5040217;28;20240;-76
2023/08/20 06:07:35;;;;;;;3.90;3.70;;;24.20;54.20;;;;;;5038974;28;20256;-75
2023/08/20 06:10:01;;;;;;;4.20;3.90;;;24.10;54.20;;;;;;5040085;28;20230;-74
2023/08/20 06:12:27;;;;;;;3.77;3.47;;;24.10;54.10;;;;;;5042273;28;20213;-75
2023/08/20 06:14:52;;;;;;;4.30;4.00;;;24.10;54.20;;;;;;5033685;28;20222;-74
2023/08/20 06:17:18;;;;;;;3.57;3.37;;;24.10;54.20;;;;;;5039879;28;20210;-74
2023/08/20 06:19:44;;;;;;;3.70;3.40;;;24.20;54.30;;;;;;5040562;28;20238;-73
2023/08/20 06:22:10;;;;;;;3.53;3.33;;;24.10;54.10;;;;;;5037808;28;20240;-73
2023/08/20 06:24:35;;;;;;;3.93;3.63;;;24.20;54.20;;;;;;5039990;28;20454;-74
2023/08/20 06:27:01;;;;;;;4.87;4.47;;;24.20;55.00;;;;;;5022497;28;20233;-74
2023/08/20 06:29:27;;;;;;;3.83;3.63;;;24.20;54.20;;;;;;5023513;28;20294;-74
2023/08/20 06:31:52;;;;;;;4.73;4.50;;;24.20;54.20;;;;;;5037308;28;20217;-72
2023/08/20 06:34:18;;;;;;;3.50;3.30;;;24.20;54.20;;;;;;5038587;28;20225;-73
2023/08/20 06:36:44;;;;;;;3.90;3.60;;;24.20;54.40;;;;;;5013974;28;20615;-72
2023/08/20 06:39:09;;;;;;;3.60;3.40;;;24.20;54.20;;;;;;5038640;28;20229;-73
2023/08/20 06:41:35;;;;;;;3.60;3.40;;;24.20;54.20;;;;;;5041268;28;20222;-71
2023/08/20 06:44:01;;;;;;;4.67;4.27;;;24.20;54.20;;;;;;5040601;28;20228;-72
2023/08/20 06:46:27;;;;;;;5.60;4.10;;;24.20;54.20;;;;;;5040277;28;20218;-72
2023/08/20 06:48:53;;;;;;;4.20;4.00;;;24.20;54.20;;;;;;5020274;28;21864;-75
2023/08/20 06:51:22;;;;;;;4.03;3.80;;;24.20;54.20;;;;;;5031843;28;20689;-76
2023/08/20 06:53:48;;;;;;;4.67;4.37;;;24.20;54.20;;;;;;5036702;28;20356;-72
2023/08/20 06:56:14;;;;;;;4.43;4.03;;;24.20;54.20;;;;;;5029573;28;20518;-70
2023/08/20 06:58:41;;;;;;;4.97;4.57;;;24.20;54.40;;;;;;5035232;28;20637;-71
2023/08/20 07:01:08;;;;;;;6.27;5.20;;;24.20;54.30;;;;;;5033070;28;21201;-70
2023/08/20 07:03:35;;;;;;;6.80;4.80;;;24.20;54.40;;;;;;5035271;28;20557;-70
2023/08/20 07:06:00;;;;;;;5.70;5.30;;;24.20;54.40;;;;;;5012724;28;20462;-69
2023/08/20 07:08:26;;;;;;;5.77;5.27;;;24.20;54.40;;;;;;5033015;28;20544;-70
2023/08/20 07:10:51;;;;;;;6.50;5.90;;;24.20;54.40;;;;;;5036329;28;20218;-72
2023/08/20 07:13:17;;;;;;;6.10;5.70;;;24.20;54.60;;;;;;5034948;28;20222;-71
2023/08/20 07:15:43;;;;;;;5.27;4.97;;;24.20;54.50;;;;;;5032906;28;20600;-70
2023/08/20 07:18:08;;;;;;;5.60;5.10;;;24.20;54.60;;;;;;5031838;28;20229;-70
2023/08/20 07:20:33;;;;;;;5.93;5.53;;;24.20;54.60;;;;;;5011280;28;20605;-69
2023/08/20 07:22:59;;;;;;;6.23;5.83;;;24.20;55.40;;;;;;5029925;28;20337;-71
2023/08/20 07:25:25;;;;;;;5.57;5.23;;;24.20;54.70;;;;;;5027005;28;20220;-72
2023/08/20 07:27:50;;;;;;;5.53;5.10;;;24.20;54.70;;;;;;5034748;28;20241;-74
2023/08/20 07:30:16;;;;;;;4.63;4.33;;;24.20;54.70;;;;;;5020713;28;20242;-73
2023/08/20 07:32:42;;;;;;;6.87;6.00;;;24.20;54.80;;;;;;5035601;28;20213;-72
2023/08/20 07:35:08;;;;;;;6.03;5.63;;;24.20;54.80;;;;;;5036862;28;20225;-75
2023/08/20 07:37:34;;;;;;;6.20;5.67;;;24.20;54.80;;;;;;5018002;28;20211;-73
2023/08/20 07:39:59;;;;;;;5.10;4.40;;;24.20;54.90;;;;;;5039750;28;20992;-75
2023/08/20 07:42:25;;;;;;;5.27;4.83;;;24.20;54.90;;;;;;5033975;28;20264;-75
2023/08/20 07:44:50;;;;;;;4.53;4.23;;;24.20;54.90;;;;;;5032483;28;20803;-75
2023/08/20 07:47:16;;;;;;;4.80;4.27;;;24.20;54.80;;;;;;5031995;28;20226;-76
2023/08/20 07:49:41;;;;;;;5.40;5.00;;;24.20;54.90;;;;;;5013056;28;20238;-74
2023/08/20 07:52:07;;;;;;;4.40;4.20;;;24.20;54.90;;;;;;5011213;28;20317;-76
2023/08/20 07:54:32;;;;;;;5.20;4.77;;;24.20;54.90;;;;;;5033315;28;20214;-76
2023/08/20 07:56:58;;;;;;;4.50;4.20;;;24.20;54.90;;;;;;5030781;28;20214;-75
2023/08/20 07:59:23;;;;;;;4.27;4.00;;;24.20;54.90;;;;;;5026035;28;20225;-74
2023/08/20 08:01:49;;;;;;;3.83;3.63;;;24.20;54.90;;;;;;5010487;28;20218;-76
2023/08/20 08:04:15;;;;;;;4.27;3.97;;;24.20;54.90;;;;;;5026216;28;20251;-74
2023/08/20 08:06:40;;;;;;;5.17;4.40;;;24.20;55.00;;;;;;5011426;28;20248;-77
2023/08/20 08:09:26;;;;;;;4.30;4.10;;;24.20;54.90;;;;;;5011247;28;20229;-74
2023/08/20 08:11:52;;;;;;;5.53;5.23;;;24.30;54.90;;;;;;5028644;28;20611;-76
2023/08/20 08:14:18;;;;;;;5.50;5.10;;;24.30;55.00;;;;;;5026697;28;20451;-76
2023/08/20 08:16:46;;;;;;;5.13;4.83;;;24.30;55.00;;;;;;5028503;28;20233;-75
2023/08/20 08:19:12;;;;;;;5.97;5.57;;;24.30;55.00;;;;;;5030911;28;20552;-72
2023/08/20 08:21:38;;;;;;;5.03;4.73;;;24.30;55.00;;;;;;5023184;28;21004;-74
2023/08/20 08:24:04;;;;;;;4.53;4.33;;;24.30;55.00;;;;;;5011567;28;20466;-74
2023/08/20 08:26:31;;;;;;;12.43;5.70;;;24.30;55.00;;;;;;5028330;28;20236;-77
2023/08/20 08:28:56;;;;;;;5.57;4.93;;;24.30;55.10;;;;;;5026729;28;20481;-70
2023/08/20 08:31:23;;;;;;;3.90;3.70;;;24.30;55.10;;;;;;5011626;28;20499;-72
2023/08/20 08:33:48;;;;;;;4.10;3.70;;;24.30;55.10;;;;;;5034050;28;20221;-73
2023/08/20 08:36:16;;;;;;;4.90;3.80;;;24.40;55.30;;;;;;5012051;28;20524;-72
2023/08/20 08:38:45;;;;;;;4.50;4.23;;;24.30;55.10;;;;;;5029851;28;20308;-72
2023/08/20 08:41:12;;;;;;;4.23;3.93;;;24.40;55.30;;;;;;5014508;28;20459;-73
2023/08/20 08:43:39;;;;;;;5.20;4.63;;;24.40;55.30;;;;;;5025460;28;20514;-72
2023/08/20 08:46:13;;;;;;;4.33;4.03;;;24.40;55.30;;;;;;5027190;28;20971;-73
2023/08/20 08:48:41;;;;;;;4.37;4.10;;;24.40;55.30;;;;;;5029747;28;20472;-72
2023/08/20 08:51:06;;;;;;;4.47;4.17;;;24.40;55.30;;;;;;5013626;28;20465;-72
2023/08/20 08:53:33;;;;;;;3.97;3.67;;;24.40;55.30;;;;;;5002483;28;20925;-71
2023/08/20 08:55:59;;;;;;;4.20;4.00;;;24.40;55.30;;;;;;5012037;28;20244;-71
2023/08/20 08:58:25;;;;;;;4.27;4.00;;;24.40;55.40;;;;;;5028287;28;22034;-70
2023/08/20 09:00:51;;;;;;;3.97;3.77;;;24.40;55.30;;;;;;5036074;28;21427;-72
2023/08/20 09:03:16;;;;;;;4.20;4.00;;;24.40;55.40;;;;;;5018817;28;20893;-70
2023/08/20 09:06:03;;;;;;;4.73;4.30;;;24.40;55.50;;;;;;5032313;28;20213;-72
2023/08/20 09:08:32;;;;;;;4.23;4.03;;;24.40;55.30;;;;;;5026436;28;21093;-71
2023/08/20 09:11:00;;;;;;;4.20;4.00;;;24.40;55.30;;;;;;5027121;28;20447;-70
2023/08/20 09:13:40;;;;;;;4.63;4.43;;;24.40;55.30;;;;;;5037223;28;20443;-71
2023/08/20 09:16:10;;;;;;;4.70;4.27;;;24.40;55.30;;;;;;5037227;28;20466;-71
2023/08/20 09:18:40;;;;;;;4.30;4.10;;;24.40;55.40;;;;;;5017831;28;20454;-71
2023/08/20 09:21:10;;;;;;;4.37;4.17;;;24.40;55.40;;;;;;5018913;28;21264;-70
2023/08/20 09:23:36;;;;;;;3.97;3.77;;;24.40;55.30;;;;;;5035047;28;20466;-71
2023/08/20 09:26:04;;;;;;;5.57;5.17;;;24.40;55.30;;;;;;5038312;28;20965;-71
2023/08/20 09:28:50;;;;;;;3.90;3.70;;;24.40;55.30;;;;;;5033608;28;20454;-71
2023/08/20 09:31:16;;;;;;;5.67;4.17;;;24.40;55.30;;;;;;5035731;28;20782;-71
2023/08/20 09:33:52;;;;;;;4.03;3.83;;;24.40;55.40;;;;;;5019139;28;20461;-70
2023/08/20 09:36:18;;;;;;;5.10;4.80;;;24.40;55.40;;;;;;5036597;28;20752;-71
2023/08/20 09:38:44;;;;;;;4.40;4.10;;;24.40;55.30;;;;;;5036080;28;21110;-71
2023/08/20 09:41:11;;;;;;;5.20;4.80;;;24.40;55.30;;;;;;5037185;28;20468;-71
2023/08/20 09:43:38;;;;;;;4.20;4.00;;;24.40;55.30;;;;;;5017151;28;20400;-71
2023/08/20 09:46:05;;;;;;;4.80;4.60;;;24.40;55.30;;;;;;5038146;28;21158;-71
2023/08/20 09:48:37;;;;;;;4.67;4.40;;;24.50;55.40;;;;;;5014529;28;21052;-71
2023/08/20 09:51:10;;;;;;;4.50;4.20;;;24.50;55.40;;;;;;5037502;28;22904;-71
2023/08/20 09:53:44;;;;;;;4.57;4.37;;;24.50;55.40;;;;;;5036941;28;20455;-71
2023/08/20 09:56:21;;;;;;;4.80;4.50;;;24.50;55.40;;;;;;5037539;28;20454;-71
2023/08/20 09:58:48;;;;;;;4.33;4.13;;;24.50;55.40;;;;;;5018331;28;20460;-71
2023/08/20 10:01:14;;;;;;;4.97;4.77;;;24.50;55.40;;;;;;5033138;28;22117;-71
2023/08/20 10:03:41;;;;;;;4.53;4.23;;;24.50;55.40;;;;;;5019634;28;21165;-74
2023/08/20 10:06:11;;;;;;;4.37;4.17;;;24.50;55.40;;;;;;5036001;28;20226;-72
2023/08/20 10:08:37;;;;;;;4.33;4.13;;;24.50;55.30;;;;;;5016191;28;22466;-73
2023/08/20 10:11:03;;;;;;;4.33;4.13;;;24.50;55.40;;;;;;5018062;28;20470;-74
2023/08/20 10:13:29;;;;;;;4.67;4.37;;;24.50;55.40;;;;;;5035436;28;20459;-72
2023/08/20 10:15:55;;;;;;;4.23;4.03;;;24.50;55.30;;;;;;5036455;28;20762;-73
2023/08/20 10:18:22;;;;;;;4.67;4.37;;;24.50;55.30;;;;;;5037222;28;20230;-73
2023/08/20 10:20:51;;;;;;;4.50;4.30;;;24.50;55.40;;;;;;5038040;28;20399;-74
2023/08/20 10:23:22;;;;;;;5.03;4.73;;;24.50;55.30;;;;;;5022181;28;20451;-72
2023/08/20 10:25:48;;;;;;;4.63;4.33;;;24.50;55.30;;;;;;5035426;28;20498;-72
2023/08/20 10:28:25;;;;;;;5.10;4.80;;;24.50;55.30;;;;;;5034410;28;20874;-72
2023/08/20 10:31:06;;;;;;;4.67;4.47;;;24.50;55.40;;;;;;5035593;28;20586;-72
2023/08/20 10:33:34;;;;;;;4.07;3.87;;;24.50;55.30;;;;;;5035824;28;20467;-73
2023/08/20 10:36:08;;;;;;;4.57;4.37;;;24.50;55.30;;;;;;5033036;28;20548;-72
2023/08/20 10:38:38;;;;;;;4.20;3.90;;;24.50;55.30;;;;;;5035887;28;20450;-72
2023/08/20 10:41:08;;;;;;;4.90;4.70;;;24.50;55.30;;;;;;5034876;28;20532;-73
2023/08/20 10:43:46;;;;;;;4.00;3.80;;;24.50;55.30;;;;;;5034926;28;20469;-72
2023/08/20 10:46:18;;;;;;;4.20;4.00;;;24.50;55.30;;;;;;5033369;28;20458;-72
2023/08/20 10:48:49;;;;;;;4.40;4.20;;;24.60;55.30;;;;;;5033191;28;20516;-73
2023/08/20 10:51:19;;;;;;;4.77;4.47;;;24.60;55.30;;;;;;5034363;28;21859;-72
2023/08/20 10:54:04;;;;;;;5.13;4.83;;;24.60;55.30;;;;;;5017972;28;20426;-72
2023/08/20 10:56:40;;;;;;;5.00;4.80;;;24.60;55.30;;;;;;5034243;28;20587;-72
2023/08/20 10:59:30;;;;;;;5.23;4.93;;;24.60;55.30;;;;;;5032913;28;20462;-72
2023/08/20 11:01:58;;;;;;;4.20;4.00;;;24.60;55.30;;;;;;5016055;28;20466;-72
2023/08/20 11:04:28;;;;;;;4.00;3.80;;;24.60;55.30;;;;;;5034978;28;20442;-72
2023/08/20 11:06:56;;;;;;;4.57;4.37;;;24.60;55.30;;;;;;5036117;28;20585;-73
2023/08/20 11:09:23;;;;;;;4.90;4.60;;;24.60;55.30;;;;;;5015495;28;20532;-72
2023/08/20 11:11:50;;;;;;;4.30;4.10;;;24.60;55.30;;;;;;5035340;28;20459;-72
2023/08/20 11:14:17;;;;;;;4.63;4.33;;;24.60;55.30;;;;;;5036268;28;20501;-71
2023/08/20 11:16:44;;;;;;;4.50;4.30;;;24.60;55.30;;;;;;5037759;28;20463;-71
2023/08/20 11:19:09;;;;;;;4.43;4.23;;;24.60;55.30;;;;;;5035395;28;20995;-71
2023/08/20 11:21:37;;;;;;;4.30;4.10;;;24.60;56.70;;;;;;5034353;28;20459;-71
2023/08/20 11:24:03;;;;;;;4.50;4.30;;;24.60;73.60;;;;;;5034507;28;20228;-71
2023/08/20 11:26:29;;;;;;;4.83;4.63;;;24.60;61.90;;;;;;5020482;28;21404;-71
2023/08/20 11:28:55;;;;;;;5.17;4.87;;;24.60;59.40;;;;;;5034811;28;20261;-71
2023/08/20 11:31:21;;;;;;;4.50;4.30;;;24.60;59.50;;;;;;5032710;28;20588;-71
2023/08/20 11:33:48;;;;;;;5.47;5.17;;;24.60;60.40;;;;;;5017240;28;20573;-73
2023/08/20 11:36:16;;;;;;;4.23;4.03;;;24.60;65.10;;;;;;5017125;28;20513;-72
2023/08/20 11:38:42;;;;;;;5.20;4.80;;;24.60;65.10;;;;;;5032075;28;20993;-73
2023/08/20 11:41:08;;;;;;;4.50;4.30;;;24.60;55.30;;;;;;5036106;28;20458;-73
2023/08/20 11:43:34;;;;;;;4.97;4.67;;;24.60;55.30;;;;;;5035302;28;20252;-72
2023/08/20 11:45:59;;;;;;;4.50;4.30;;;24.60;55.30;;;;;;5017918;28;20222;-72
2023/08/20 11:48:25;;;;;;;4.43;4.23;;;24.60;55.80;;;;;;5031008;28;20249;-72
2023/08/20 11:50:51;;;;;;;5.23;4.93;;;24.60;55.30;;;;;;5039031;28;20224;-72
2023/08/20 11:53:23;;;;;;;4.80;4.60;;;24.60;55.30;;;;;;5019144;28;20677;-72
2023/08/20 11:55:49;;;;;;;4.40;4.20;;;24.60;55.20;;;;;;5032889;28;20275;-72
2023/08/20 11:58:18;;;;;;;5.33;5.03;;;24.60;55.20;;;;;;5032527;28;20459;-72
2023/08/20 12:00:50;;;;;;;5.20;4.90;;;24.60;55.30;;;;;;5032505;28;20220;-73
2023/08/20 12:03:18;;;;;;;4.70;4.50;;;24.60;55.20;;;;;;5035320;28;20455;-73
2023/08/20 12:05:43;;;;;;;4.90;4.70;;;24.60;55.20;;;;;;5034112;28;20459;-73
2023/08/20 12:08:16;;;;;;;5.10;4.90;;;24.60;55.20;;;;;;5015666;28;20467;-73
2023/08/20 12:10:42;;;;;;;4.73;4.53;;;24.60;55.20;;;;;;5028901;28;20261;-72
2023/08/20 12:13:08;;;;;;;5.10;4.87;;;24.60;55.30;;;;;;5018788;28;20463;-73
2023/08/20 12:15:34;;;;;;;5.70;5.40;;;24.60;55.30;;;;;;5036848;28;20517;-73
2023/08/20 12:18:00;;;;;;;5.07;4.80;;;24.60;55.30;;;;;;5033442;28;20294;-72
2023/08/20 12:20:27;;;;;;;5.33;5.13;;;24.60;55.30;;;;;;5034377;28;20715;-72
2023/08/20 12:22:53;;;;;;;5.30;5.10;;;24.60;57.90;;;;;;5028716;28;20851;-73
2023/08/20 12:25:19;;;;;;;4.97;4.77;;;24.60;58.60;;;;;;5034378;28;20462;-73
2023/08/20 12:27:44;;;;;;;5.60;5.30;;;24.60;59.40;;;;;;5034336;28;20229;-73
2023/08/20 12:30:10;;;;;;;4.90;4.70;;;24.70;59.50;;;;;;5013194;28;20226;-72
2023/08/20 12:32:36;;;;;;;5.43;5.13;;;24.70;59.50;;;;;;5035332;28;20222;-73
2023/08/20 12:35:02;;;;;;;4.80;4.60;;;24.60;58.80;;;;;;5032179;28;20447;-72
2023/08/20 12:37:28;;;;;;;4.93;4.73;;;24.60;58.40;;;;;;5016653;28;20231;-73
2023/08/20 12:39:53;;;;;;;5.43;5.17;;;24.60;56.40;;;;;;5033158;28;20487;-72
2023/08/20 12:42:19;;;;;;;5.13;4.83;;;24.60;56.00;;;;;;5034039;28;20221;-73
2023/08/20 12:44:45;;;;;;;4.90;4.60;;;24.70;55.90;;;;;;5034233;28;20716;-72
2023/08/20 12:47:10;;;;;;;5.70;5.30;;;24.60;55.30;;;;;;5033181;28;20241;-72